Terminal Aerodrome Forecast
Issued by NWS

Home | Current Version | Previous Version | Text Only | Print | Product List | Glossary On
Versions: 1 2 3 4 5 6 7 8 9 10 11 12
000
FTUS42 TJSJ 291749
TAFIST
TAF
TIST 291749Z 2918/3018 33010KT P6SM FEW030
     FM292300 01007KT P6SM FEW025 SCT040
     FM301300 04011KT P6SM VCSH FEW030 FEW060=

USA.gov is the U.S. government's official web portal to all federal, state and local government web resources and services.